createdAt,value
2019-02-27T00:00:15.543Z,31.88
2019-02-27T00:01:17.060Z,31.88
2019-02-27T00:02:15.449Z,32.07
2019-02-27T00:03:15.403Z,31.88
2019-02-27T00:04:15.357Z,31.98
2019-02-27T00:05:15.308Z,32.07
2019-02-27T00:06:16.008Z,32.07
2019-02-27T00:07:15.216Z,31.98
2019-02-27T00:08:15.169Z,31.98
2019-02-27T00:09:15.123Z,32.07
2019-02-27T00:10:15.077Z,32.07
2019-02-27T00:11:15.029Z,31.88
2019-02-27T00:12:16.935Z,31.98
2019-02-27T00:13:14.937Z,31.98
2019-02-27T00:14:14.890Z,31.78
2019-02-27T00:15:14.845Z,31.98
2019-02-27T00:16:14.796Z,31.98
2019-02-27T00:17:15.083Z,32.07
2019-02-27T00:18:14.703Z,31.88
2019-02-27T00:19:14.656Z,31.78
2019-02-27T00:20:14.610Z,31.98
2019-02-27T00:21:14.565Z,31.98
2019-02-27T00:22:14.959Z,31.88
2019-02-27T00:23:14.472Z,32.07
2019-02-27T00:24:14.423Z,32.07
2019-02-27T00:25:14.376Z,31.78
2019-02-27T00:26:14.329Z,32.07
2019-02-27T00:27:14.801Z,32.17
2019-02-27T00:28:14.237Z,32.07
2019-02-27T00:29:14.189Z,31.88
2019-02-27T00:30:14.143Z,31.98
2019-02-27T00:31:14.099Z,31.98
2019-02-27T00:32:15.784Z,31.69
2019-02-27T00:33:14.001Z,31.78
2019-02-27T00:34:14.006Z,31.88
2019-02-27T00:35:13.959Z,31.69
2019-02-27T00:36:13.863Z,31.98
2019-02-27T00:37:13.815Z,31.69
2019-02-27T00:38:13.772Z,31.69
2019-02-27T00:39:13.723Z,31.78
2019-02-27T00:40:13.677Z,31.98
2019-02-27T00:41:13.629Z,31.69
2019-02-27T00:42:13.582Z,31.88
2019-02-27T00:43:13.536Z,31.98
2019-02-27T00:44:13.490Z,31.78
2019-02-27T00:45:13.442Z,31.98
2019-02-27T00:46:14.006Z,31.88
2019-02-27T00:47:13.665Z,32.07
2019-02-27T00:48:13.305Z,31.98
2019-02-27T00:49:13.256Z,31.69
2019-02-27T00:50:13.211Z,31.98
2019-02-27T00:51:13.166Z,31.88
2019-02-27T00:52:13.116Z,31.98
2019-02-27T00:53:13.067Z,31.98
2019-02-27T00:54:13.022Z,31.88
2019-02-27T00:55:12.975Z,31.88
2019-02-27T00:56:13.029Z,31.98
2019-02-27T00:57:12.932Z,31.88
2019-02-27T00:58:12.836Z,31.88
2019-02-27T00:59:12.788Z,31.98
2019-02-27T01:00:13.642Z,31.88
2019-02-27T01:01:13.316Z,32.07
2019-02-27T01:02:12.648Z,31.88
2019-02-27T01:03:12.600Z,31.69
2019-02-27T01:04:12.556Z,31.88
2019-02-27T01:05:12.509Z,31.98
2019-02-27T01:06:14.688Z,31.69
2019-02-27T01:07:12.417Z,31.69
2019-02-27T01:08:12.371Z,31.59
2019-02-27T01:09:12.321Z,31.98
2019-02-27T01:10:13.007Z,32.06
2019-02-27T01:11:12.229Z,31.98
2019-02-27T01:12:12.183Z,31.98
2019-02-27T01:13:12.134Z,31.98
2019-02-27T01:14:12.088Z,31.69
2019-02-27T01:15:12.042Z,31.98
2019-02-27T01:16:12.043Z,31.59
2019-02-27T01:17:11.948Z,31.69
2019-02-27T01:18:11.951Z,31.69
2019-02-27T01:19:11.864Z,31.69
2019-02-27T01:20:12.050Z,31.96
2019-02-27T01:21:11.764Z,31.69
2019-02-27T01:22:11.715Z,31.69
2019-02-27T01:23:11.668Z,31.57
2019-02-27T01:24:11.622Z,31.69
2019-02-27T01:25:11.574Z,31.98
2019-02-27T01:26:11.528Z,31.69
2019-02-27T01:27:11.482Z,31.67
2019-02-27T01:28:11.660Z,31.69
2019-02-27T01:29:11.391Z,31.59
2019-02-27T01:30:11.341Z,31.59
2019-02-27T01:31:11.295Z,31.67
2019-02-27T01:32:11.248Z,31.69
2019-02-27T01:33:11.201Z,31.59
2019-02-27T01:34:11.917Z,31.57
2019-02-27T01:35:11.108Z,31.67
2019-02-27T01:36:11.062Z,31.57
2019-02-27T01:37:11.014Z,31.78
2019-02-27T01:38:11.017Z,31.59
2019-02-27T01:39:11.362Z,31.77
2019-02-27T01:40:10.874Z,31.88
2019-02-27T01:41:10.826Z,31.59
2019-02-27T01:42:10.780Z,31.59
2019-02-27T01:43:10.733Z,31.57
2019-02-27T01:44:11.147Z,31.59
2019-02-27T01:45:10.643Z,31.87
2019-02-27T01:46:10.593Z,31.77
2019-02-27T01:47:10.547Z,31.88
2019-02-27T01:48:10.820Z,31.67
2019-02-27T01:49:10.772Z,31.67
2019-02-27T01:50:10.406Z,31.57
2019-02-27T01:51:10.359Z,31.87
2019-02-27T01:52:10.315Z,31.77
2019-02-27T01:53:10.265Z,31.77
2019-02-27T01:54:12.229Z,31.87
2019-02-27T01:55:10.174Z,31.77
2019-02-27T01:56:10.126Z,31.77
2019-02-27T01:57:10.079Z,31.88
2019-02-27T01:58:10.276Z,31.67
2019-02-27T01:59:09.986Z,31.67
2019-02-27T02:00:09.990Z,31.77
2019-02-27T02:01:09.893Z,31.96
2019-02-27T02:02:09.845Z,31.87
2019-02-27T02:03:11.224Z,31.78
2019-02-27T02:04:09.752Z,31.87
2019-02-27T02:05:09.704Z,31.69
2019-02-27T02:06:09.659Z,31.87
2019-02-27T02:07:09.612Z,31.96
2019-02-27T02:08:13.641Z,31.87
2019-02-27T02:09:09.517Z,31.87
2019-02-27T02:10:09.477Z,31.77
2019-02-27T02:11:09.425Z,31.87
2019-02-27T02:12:09.378Z,31.87
2019-02-27T02:13:09.343Z,31.87
2019-02-27T02:14:09.286Z,31.77
2019-02-27T02:15:09.253Z,31.57
2019-02-27T02:16:09.192Z,31.87
2019-02-27T02:17:09.151Z,31.87
2019-02-27T02:18:09.098Z,31.77
2019-02-27T02:19:09.051Z,31.87
2019-02-27T02:20:09.004Z,31.77
2019-02-27T02:21:08.957Z,31.77
2019-02-27T02:22:09.107Z,31.48
2019-02-27T02:23:08.864Z,31.77
2019-02-27T02:24:08.817Z,31.77
2019-02-27T02:25:08.770Z,31.38
2019-02-27T02:26:08.724Z,31.77
2019-02-27T02:27:08.877Z,31.96
2019-02-27T02:28:08.630Z,31.67
2019-02-27T02:29:08.586Z,31.77
2019-02-27T02:30:08.540Z,31.67
2019-02-27T02:31:08.491Z,31.48
2019-02-27T02:32:08.444Z,31.87
2019-02-27T02:33:08.409Z,31.77
2019-02-27T02:34:08.351Z,31.67
2019-02-27T02:35:14.846Z,31.87
2019-02-27T02:36:08.258Z,31.48
2019-02-27T02:37:08.210Z,31.57
2019-02-27T02:38:12.082Z,31.67
2019-02-27T02:39:08.120Z,31.57
2019-02-27T02:40:08.074Z,31.57
2019-02-27T02:41:09.272Z,31.57
2019-02-27T02:42:07.978Z,31.48
2019-02-27T02:43:07.981Z,31.57
2019-02-27T02:44:07.885Z,31.48
2019-02-27T02:45:07.852Z,31.38
2019-02-27T02:46:08.917Z,31.57
2019-02-27T02:47:07.743Z,31.57
2019-02-27T02:48:07.704Z,31.57
2019-02-27T02:49:08.498Z,31.77
2019-02-27T02:50:07.602Z,31.57
2019-02-27T02:51:07.555Z,31.67
2019-02-27T02:52:07.508Z,31.57
2019-02-27T02:53:07.463Z,31.57
2019-02-27T02:54:07.414Z,31.48
2019-02-27T02:55:11.946Z,31.48
2019-02-27T02:56:07.324Z,31.38
2019-02-27T02:57:07.275Z,31.57
2019-02-27T02:58:07.977Z,31.67
2019-02-27T02:59:07.181Z,31.48
2019-02-27T03:00:07.135Z,31.87
2019-02-27T03:01:07.091Z,31.38
2019-02-27T03:02:07.099Z,31.67
2019-02-27T03:03:06.995Z,31.48
2019-02-27T03:04:12.493Z,31.87
2019-02-27T03:05:07.067Z,31.57
2019-02-27T03:06:06.855Z,31.57
2019-02-27T03:07:07.165Z,31.48
2019-02-27T03:08:06.762Z,31.67
2019-02-27T03:09:06.713Z,31.57
2019-02-27T03:10:08.129Z,31.57
2019-02-27T03:11:06.621Z,31.57
2019-02-27T03:12:06.574Z,31.38
2019-02-27T03:13:07.437Z,31.87
2019-02-27T03:14:06.480Z,31.38
2019-02-27T03:15:06.433Z,31.38
2019-02-27T03:16:06.394Z,31.57
2019-02-27T03:17:06.340Z,31.38
2019-02-27T03:18:06.293Z,31.48
2019-02-27T03:19:06.625Z,31.38
2019-02-27T03:20:06.199Z,31.38
2019-02-27T03:21:06.152Z,31.48
2019-02-27T03:22:06.106Z,31.87
2019-02-27T03:23:06.060Z,31.57
2019-02-27T03:24:06.017Z,31.57
2019-02-27T03:25:06.019Z,31.57
2019-02-27T03:26:05.918Z,31.48
2019-02-27T03:27:05.871Z,31.57
2019-02-27T03:28:05.989Z,31.57
2019-02-27T03:29:05.779Z,31.48
2019-02-27T03:30:05.731Z,31.48
2019-02-27T03:31:16.398Z,31.48
2019-02-27T03:32:05.639Z,31.48
2019-02-27T03:33:05.591Z,31.48
2019-02-27T03:34:08.756Z,31.57
2019-02-27T03:35:05.500Z,31.48
2019-02-27T03:36:05.452Z,31.57
2019-02-27T03:37:05.404Z,31.57
2019-02-27T03:38:05.356Z,31.48
2019-02-27T03:39:05.311Z,31.57
2019-02-27T03:40:10.942Z,31.57
2019-02-27T03:41:05.218Z,31.67
2019-02-27T03:42:05.169Z,31.38
2019-02-27T03:43:10.022Z,31.57
2019-02-27T03:44:05.076Z,31.38
2019-02-27T03:45:05.029Z,31.38
2019-02-27T03:46:06.194Z,31.57
2019-02-27T03:47:05.036Z,31.57
2019-02-27T03:48:04.890Z,31.57
2019-02-27T03:49:04.851Z,31.57
2019-02-27T03:50:04.796Z,31.38
2019-02-27T03:51:04.748Z,31.48
2019-02-27T03:52:04.702Z,31.48
2019-02-27T03:53:10.762Z,31.57
2019-02-27T03:54:04.608Z,31.48
2019-02-27T03:55:04.567Z,31.48
2019-02-27T03:56:08.739Z,31.57
2019-02-27T03:57:04.468Z,31.48
2019-02-27T03:58:04.421Z,31.48
2019-02-27T03:59:06.074Z,31.57
2019-02-27T04:00:04.338Z,31.48
2019-02-27T04:01:04.280Z,31.48
2019-02-27T04:02:06.291Z,31.48
2019-02-27T04:03:04.188Z,31.48
2019-02-27T04:04:04.141Z,31.57
2019-02-27T04:05:07.172Z,31.57
2019-02-27T04:06:04.101Z,31.48
2019-02-27T04:07:04.100Z,31.48
2019-02-27T04:08:08.535Z,31.48
2019-02-27T04:09:03.905Z,31.48
2019-02-27T04:10:03.862Z,31.57
2019-02-27T04:11:06.036Z,31.67
2019-02-27T04:12:03.767Z,31.38
2019-02-27T04:13:03.720Z,31.57
2019-02-27T04:14:05.470Z,31.67
2019-02-27T04:15:03.636Z,31.48
2019-02-27T04:16:03.579Z,31.48
2019-02-27T04:17:06.955Z,31.57
2019-02-27T04:18:03.485Z,31.57
2019-02-27T04:19:04.955Z,31.48
2019-02-27T04:20:03.390Z,31.48
2019-02-27T04:21:03.347Z,31.57
2019-02-27T04:22:03.303Z,31.48
2019-02-27T04:23:03.251Z,31.67
2019-02-27T04:24:03.212Z,31.67
2019-02-27T04:25:03.157Z,31.48
2019-02-27T04:26:05.697Z,31.48
2019-02-27T04:27:03.114Z,31.38
2019-02-27T04:28:03.071Z,31.57
2019-02-27T04:29:04.496Z,31.57
2019-02-27T04:30:02.974Z,31.57
2019-02-27T04:31:02.883Z,31.48
2019-02-27T04:32:02.831Z,31.57
2019-02-27T04:33:02.783Z,31.67
2019-02-27T04:34:02.739Z,31.48
2019-02-27T04:35:06.166Z,31.57
2019-02-27T04:36:02.643Z,31.67
2019-02-27T04:37:02.596Z,31.48
2019-02-27T04:38:02.549Z,31.48
2019-02-27T04:39:03.138Z,31.48
2019-02-27T04:40:02.456Z,31.48
2019-02-27T04:41:02.408Z,31.48
2019-02-27T04:42:02.362Z,31.67
2019-02-27T04:43:02.315Z,31.67
2019-02-27T04:44:05.351Z,31.57
2019-02-27T04:45:02.221Z,31.38
2019-02-27T04:46:02.176Z,31.67
2019-02-27T04:47:02.135Z,31.67
2019-02-27T04:48:02.081Z,31.57
2019-02-27T04:49:04.929Z,31.57
2019-02-27T04:50:01.986Z,31.57
2019-02-27T04:51:01.941Z,31.38
2019-02-27T04:52:01.897Z,31.57
2019-02-27T04:53:01.847Z,31.48
2019-02-27T04:54:06.425Z,31.48
2019-02-27T04:55:01.756Z,31.48
2019-02-27T04:56:01.723Z,31.48
2019-02-27T04:57:01.658Z,31.48
2019-02-27T04:58:01.613Z,31.29
2019-02-27T04:59:01.567Z,31.48
2019-02-27T05:00:01.520Z,31.38
2019-02-27T05:01:01.473Z,31.38
2019-02-27T05:02:01.430Z,31.48
2019-02-27T05:03:01.381Z,31.48
2019-02-27T05:04:02.149Z,31.48
2019-02-27T05:05:01.286Z,31.48
2019-02-27T05:06:01.239Z,31.38
2019-02-27T05:07:01.196Z,31.48
2019-02-27T05:08:01.146Z,31.48
2019-02-27T05:09:01.098Z,31.38
2019-02-27T05:10:01.052Z,31.38
2019-02-27T05:11:01.005Z,31.38
2019-02-27T05:12:00.958Z,31.48
2019-02-27T05:13:00.911Z,31.48
2019-02-27T05:14:00.864Z,31.48
2019-02-27T05:15:03.970Z,31.38
2019-02-27T05:16:00.772Z,31.38
2019-02-27T05:17:00.724Z,31.38
2019-02-27T05:18:00.676Z,31.38
2019-02-27T05:19:03.605Z,31.48
2019-02-27T05:20:00.585Z,31.38
2019-02-27T05:21:00.536Z,31.38
2019-02-27T05:22:01.326Z,31.38
2019-02-27T05:23:00.981Z,31.48
2019-02-27T05:24:00.396Z,31.38
2019-02-27T05:25:00.349Z,31.38
2019-02-27T05:26:00.303Z,31.38
2019-02-27T05:27:00.874Z,31.48
2019-02-27T05:28:01.530Z,31.48
2019-02-27T05:29:00.162Z,31.38
2019-02-27T05:30:00.388Z,31.38
2019-02-27T05:31:00.068Z,31.29
2019-02-27T05:32:00.022Z,31.48
2019-02-27T05:33:02.229Z,31.38
2019-02-27T05:33:59.979Z,31.29
2019-02-27T05:34:59.882Z,31.29
2019-02-27T05:35:59.835Z,31.38
2019-02-27T05:36:59.787Z,31.48
2019-02-27T05:37:59.742Z,31.48
2019-02-27T05:38:59.694Z,31.48
2019-02-27T05:39:59.648Z,31.29
2019-02-27T05:41:00.133Z,31.38
2019-02-27T05:42:00.906Z,31.38
2019-02-27T05:42:59.507Z,31.29
2019-02-27T05:43:59.461Z,31.38
2019-02-27T05:44:59.413Z,31.48
2019-02-27T05:46:02.906Z,31.29
2019-02-27T05:46:59.322Z,31.38
2019-02-27T05:47:59.281Z,31.29
2019-02-27T05:48:59.228Z,31.48
2019-02-27T05:50:00.683Z,31.38
2019-02-27T05:50:59.132Z,31.29
2019-02-27T05:51:59.086Z,31.29
2019-02-27T05:52:59.039Z,31.48
2019-02-27T05:53:59.180Z,31.29
2019-02-27T05:54:58.994Z,31.29
2019-02-27T05:55:58.899Z,31.38
2019-02-27T05:56:58.852Z,31.29
2019-02-27T05:57:58.804Z,31.38
2019-02-27T05:58:58.761Z,31.38
2019-02-27T06:00:02.228Z,31.48
2019-02-27T06:00:58.663Z,31.29
2019-02-27T06:01:58.616Z,31.48
2019-02-27T06:02:58.574Z,31.38
2019-02-27T06:03:58.525Z,31.48
2019-02-27T06:04:59.202Z,31.38
2019-02-27T06:05:58.429Z,31.48
2019-02-27T06:06:58.383Z,31.48
2019-02-27T06:08:02.009Z,31.38
2019-02-27T06:08:58.289Z,31.38
2019-02-27T06:09:58.272Z,31.38
2019-02-27T06:10:58.195Z,31.38
2019-02-27T06:11:58.149Z,31.29
2019-02-27T06:12:58.102Z,31.48
2019-02-27T06:13:58.056Z,31.57
2019-02-27T06:14:58.008Z,31.19
2019-02-27T06:16:02.724Z,31.29
2019-02-27T06:16:57.916Z,31.29
2019-02-27T06:17:57.867Z,31.19
2019-02-27T06:18:57.821Z,31.19
2019-02-27T06:19:57.774Z,31.38
2019-02-27T06:20:57.727Z,31.38
2019-02-27T06:21:57.682Z,31.09
2019-02-27T06:22:57.635Z,31.09
2019-02-27T06:23:57.587Z,30.80
2019-02-27T06:24:57.544Z,30.90
2019-02-27T06:25:59.415Z,30.80
2019-02-27T06:26:57.447Z,31.19
2019-02-27T06:27:57.399Z,30.80
2019-02-27T06:28:57.352Z,30.80
2019-02-27T06:29:57.831Z,30.90
2019-02-27T06:30:57.259Z,30.90
2019-02-27T06:31:57.217Z,30.90
2019-02-27T06:32:57.165Z,30.80
2019-02-27T06:33:59.012Z,30.80
2019-02-27T06:34:59.340Z,30.80
2019-02-27T06:35:57.025Z,30.71
2019-02-27T06:36:56.977Z,31.09
2019-02-27T06:37:56.930Z,31.19
2019-02-27T06:39:00.082Z,30.90
2019-02-27T06:39:56.838Z,31.09
2019-02-27T06:40:56.790Z,31.19
2019-02-27T06:41:56.744Z,31.09
2019-02-27T06:42:56.943Z,31.09
2019-02-27T06:43:58.940Z,31.19
2019-02-27T06:44:56.603Z,30.80
2019-02-27T06:45:56.561Z,31.29
2019-02-27T06:46:56.511Z,30.82
2019-02-27T06:47:56.463Z,30.71
2019-02-27T06:48:56.553Z,30.80
2019-02-27T06:49:56.369Z,31.09
2019-02-27T06:50:58.303Z,30.80
2019-02-27T06:51:56.276Z,30.80
2019-02-27T06:52:56.229Z,31.01
2019-02-27T06:53:56.182Z,30.53
2019-02-27T06:54:56.136Z,30.53
2019-02-27T06:55:56.088Z,30.73
2019-02-27T06:56:56.041Z,31.01
2019-02-27T06:57:55.997Z,30.73
2019-02-27T06:58:55.952Z,30.63
2019-02-27T06:59:57.544Z,30.43
2019-02-27T07:00:55.854Z,29.86
2019-02-27T07:01:55.807Z,30.24
2019-02-27T07:02:56.217Z,29.87
2019-02-27T07:03:55.717Z,29.58
2019-02-27T07:04:55.670Z,29.87
2019-02-27T07:05:55.622Z,29.97
2019-02-27T07:06:56.029Z,30.16
2019-02-27T07:07:55.528Z,29.97
2019-02-27T07:08:55.481Z,29.97
2019-02-27T07:09:55.434Z,29.87
2019-02-27T07:10:57.536Z,29.79
2019-02-27T07:11:55.341Z,29.79
2019-02-27T07:12:55.431Z,29.41
2019-02-27T07:13:55.247Z,29.31
2019-02-27T07:14:55.200Z,29.41
2019-02-27T07:15:55.698Z,29.50
2019-02-27T07:16:57.321Z,29.69
2019-02-27T07:17:55.061Z,29.79
2019-02-27T07:18:55.014Z,29.89
2019-02-27T07:19:55.017Z,29.79
2019-02-27T07:20:55.691Z,29.98
2019-02-27T07:21:54.875Z,30.19
2019-02-27T07:22:54.835Z,29.90
2019-02-27T07:23:58.500Z,29.80
2019-02-27T07:24:54.735Z,29.80
2019-02-27T07:25:54.694Z,29.90
2019-02-27T07:26:54.643Z,29.90
2019-02-27T07:27:54.598Z,29.90
2019-02-27T07:28:54.551Z,29.91
2019-02-27T07:29:54.503Z,29.91
2019-02-27T07:30:54.461Z,29.72
2019-02-27T07:31:54.410Z,29.72
2019-02-27T07:32:54.364Z,29.82
2019-02-27T07:33:54.316Z,29.82
2019-02-27T07:34:54.275Z,29.53
2019-02-27T07:35:54.226Z,29.45
2019-02-27T07:36:54.185Z,29.14
2019-02-27T07:37:54.130Z,28.97
2019-02-27T07:38:54.353Z,29.06
2019-02-27T07:39:54.041Z,28.67
2019-02-27T07:40:54.031Z,28.77
2019-02-27T07:41:53.996Z,28.67
2019-02-27T07:42:53.899Z,28.87
2019-02-27T07:43:53.853Z,28.87
2019-02-27T07:44:53.808Z,28.87
2019-02-27T07:45:54.411Z,28.67
2019-02-27T07:46:57.288Z,28.78
2019-02-27T07:47:53.669Z,28.69
2019-02-27T07:48:56.290Z,28.88
2019-02-27T07:49:53.576Z,28.78
2019-02-27T07:50:53.537Z,28.59
2019-02-27T07:51:57.044Z,28.59
2019-02-27T07:52:53.438Z,28.40
2019-02-27T07:53:53.812Z,28.30
2019-02-27T07:54:53.446Z,28.11
2019-02-27T07:55:53.300Z,28.20
2019-02-27T07:56:53.255Z,28.11
2019-02-27T07:57:53.210Z,27.83
2019-02-27T07:58:53.160Z,27.83
2019-02-27T07:59:53.115Z,27.35
2019-02-27T08:00:53.069Z,27.45
2019-02-27T08:01:53.022Z,27.64
2019-02-27T08:02:52.980Z,27.83
2019-02-27T08:03:52.932Z,27.73
2019-02-27T08:04:54.711Z,27.45
2019-02-27T08:05:52.838Z,27.25
2019-02-27T08:06:52.794Z,27.06
2019-02-27T08:07:52.747Z,27.25
2019-02-27T08:08:56.883Z,27.15
2019-02-27T08:09:52.656Z,27.46
2019-02-27T08:10:52.612Z,27.15
2019-02-27T08:11:52.568Z,26.78
2019-02-27T08:12:55.558Z,26.68
2019-02-27T08:13:52.473Z,26.88
2019-02-27T08:14:52.426Z,26.88
2019-02-27T08:15:52.382Z,26.78
2019-02-27T08:16:57.099Z,26.40
2019-02-27T08:17:57.335Z,26.88
2019-02-27T08:18:52.248Z,26.40
2019-02-27T08:19:52.199Z,26.31
2019-02-27T08:20:54.512Z,25.73
2019-02-27T08:21:52.107Z,25.36
2019-02-27T08:22:52.062Z,25.55
2019-02-27T08:23:52.017Z,25.07
2019-02-27T08:24:52.020Z,24.88
2019-02-27T08:25:51.975Z,25.07
2019-02-27T08:26:51.881Z,24.97
2019-02-27T08:27:54.070Z,25.46
2019-02-27T08:28:51.791Z,25.46
2019-02-27T08:29:51.745Z,25.55
2019-02-27T08:30:51.700Z,25.65
2019-02-27T08:31:51.654Z,25.63
2019-02-27T08:32:51.612Z,25.63
2019-02-27T08:33:51.563Z,25.35
2019-02-27T08:34:51.519Z,25.54
2019-02-27T08:35:51.475Z,25.44
2019-02-27T08:36:51.428Z,25.44
2019-02-27T08:37:51.384Z,25.54
2019-02-27T08:38:51.337Z,25.35
2019-02-27T08:39:51.295Z,25.44
2019-02-27T08:40:51.247Z,25.44
2019-02-27T08:41:51.202Z,25.35
2019-02-27T08:42:51.157Z,25.44
2019-02-27T08:43:51.127Z,25.35
2019-02-27T08:44:51.066Z,25.35
2019-02-27T08:45:51.021Z,25.44
2019-02-27T08:46:50.977Z,25.54
2019-02-27T08:47:50.981Z,25.54
2019-02-27T08:48:50.887Z,25.16
2019-02-27T08:49:50.840Z,24.78
2019-02-27T08:50:50.795Z,24.78
2019-02-27T08:51:50.751Z,24.98
2019-02-27T08:52:51.803Z,24.30
2019-02-27T08:53:50.658Z,24.11
2019-02-27T08:54:50.614Z,23.92
2019-02-27T08:55:50.629Z,24.22
2019-02-27T08:56:50.523Z,24.12
2019-02-27T08:57:55.569Z,24.22
2019-02-27T08:58:50.433Z,24.40
2019-02-27T08:59:50.387Z,23.82
2019-02-27T09:00:51.860Z,24.30
2019-02-27T09:01:55.236Z,24.39
2019-02-27T09:02:50.252Z,24.68
2019-02-27T09:03:50.206Z,24.97
2019-02-27T09:04:50.162Z,24.68
2019-02-27T09:05:51.031Z,24.57
2019-02-27T09:06:50.071Z,25.15
2019-02-27T09:07:50.030Z,25.05
2019-02-27T09:08:49.979Z,24.96
2019-02-27T09:09:51.554Z,25.35
2019-02-27T09:10:49.890Z,25.35
2019-02-27T09:11:49.853Z,25.63
2019-02-27T09:12:51.720Z,25.43
2019-02-27T09:13:49.755Z,25.24
2019-02-27T09:14:49.708Z,25.82
2019-02-27T09:15:49.665Z,25.82
2019-02-27T09:16:49.618Z,25.72
2019-02-27T09:17:49.572Z,26.10
2019-02-27T09:18:49.528Z,26.30
2019-02-27T09:19:49.482Z,26.30
2019-02-27T09:20:53.020Z,26.20
2019-02-27T09:21:49.394Z,26.29
2019-02-27T09:22:49.346Z,26.19
2019-02-27T09:23:49.301Z,26.09
2019-02-27T09:24:49.255Z,26.39
2019-02-27T09:25:57.060Z,26.48
2019-02-27T09:26:49.163Z,26.39
2019-02-27T09:27:49.119Z,26.57
2019-02-27T09:28:49.072Z,26.67
2019-02-27T09:29:49.433Z,26.97
2019-02-27T09:30:48.986Z,26.67
2019-02-27T09:31:51.004Z,26.87
2019-02-27T09:32:48.894Z,26.77
2019-02-27T09:33:53.055Z,26.97
2019-02-27T09:34:48.801Z,26.95
2019-02-27T09:35:48.756Z,26.77
2019-02-27T09:36:49.233Z,27.25
2019-02-27T09:37:51.418Z,27.14
2019-02-27T09:38:48.623Z,27.35
2019-02-27T09:39:48.574Z,27.04
2019-02-27T09:40:48.527Z,27.44
2019-02-27T09:41:48.484Z,27.53
2019-02-27T09:42:50.183Z,27.14
2019-02-27T09:43:48.392Z,27.24
2019-02-27T09:44:48.344Z,27.14
2019-02-27T09:45:48.302Z,27.14
2019-02-27T09:46:49.939Z,26.95
2019-02-27T09:47:48.210Z,27.04
2019-02-27T09:48:48.166Z,27.14
2019-02-27T09:49:48.118Z,27.24
2019-02-27T09:50:49.039Z,27.53
2019-02-27T09:51:48.027Z,27.34
2019-02-27T09:52:48.032Z,27.53
2019-02-27T09:53:47.989Z,27.44
2019-02-27T09:54:47.890Z,27.53
2019-02-27T09:55:47.846Z,27.62
2019-02-27T09:56:47.798Z,27.72
2019-02-27T09:57:47.754Z,27.72
2019-02-27T09:58:47.711Z,27.53
2019-02-27T09:59:47.662Z,27.62
2019-02-27T10:00:47.618Z,27.72
2019-02-27T10:01:47.574Z,27.62
2019-02-27T10:02:47.526Z,27.72
2019-02-27T10:03:47.483Z,27.34
2019-02-27T10:04:47.436Z,27.82
2019-02-27T10:05:47.868Z,27.92
2019-02-27T10:06:47.344Z,27.82
2019-02-27T10:07:48.441Z,28.02
2019-02-27T10:08:47.255Z,28.40
2019-02-27T10:09:47.208Z,28.11
2019-02-27T10:10:47.162Z,28.02
2019-02-27T10:11:47.119Z,28.20
2019-02-27T10:12:47.071Z,28.11
2019-02-27T10:13:47.026Z,28.30
2019-02-27T10:14:47.904Z,28.30
2019-02-27T10:15:46.936Z,28.30
2019-02-27T10:16:46.889Z,28.40
2019-02-27T10:17:46.843Z,28.20
2019-02-27T10:18:46.800Z,28.11
2019-02-27T10:19:46.754Z,28.30
2019-02-27T10:20:46.714Z,28.11
2019-02-27T10:21:47.574Z,28.30
2019-02-27T10:22:46.616Z,28.20
2019-02-27T10:23:46.571Z,28.20
2019-02-27T10:24:46.531Z,28.30
2019-02-27T10:25:46.479Z,28.50
2019-02-27T10:26:46.442Z,28.40
2019-02-27T10:27:47.355Z,28.30
2019-02-27T10:28:46.349Z,28.30
2019-02-27T10:29:47.926Z,28.40
2019-02-27T10:30:46.931Z,28.50
2019-02-27T10:31:46.210Z,28.11
2019-02-27T10:32:46.164Z,28.11
2019-02-27T10:33:46.116Z,28.50
2019-02-27T10:34:46.072Z,28.59
2019-02-27T10:35:46.027Z,28.30
2019-02-27T10:36:47.638Z,28.48
2019-02-27T10:37:50.283Z,28.50
2019-02-27T10:38:45.888Z,28.11
2019-02-27T10:39:45.844Z,28.58
2019-02-27T10:40:46.128Z,28.00
2019-02-27T10:41:49.895Z,28.69
2019-02-27T10:42:45.707Z,28.19
2019-02-27T10:43:45.663Z,28.20
2019-02-27T10:44:45.615Z,28.29
2019-02-27T10:45:48.553Z,28.09
2019-02-27T10:46:45.525Z,28.19
2019-02-27T10:47:45.479Z,28.00
2019-02-27T10:48:46.951Z,28.09
2019-02-27T10:49:45.390Z,28.39
2019-02-27T10:50:45.344Z,28.09
2019-02-27T10:51:45.298Z,28.09
2019-02-27T10:52:45.255Z,28.19
2019-02-27T10:53:45.210Z,28.19
2019-02-27T10:54:45.163Z,28.29
2019-02-27T10:55:46.445Z,28.09
2019-02-27T10:56:45.070Z,28.19
2019-02-27T10:57:45.023Z,28.00
2019-02-27T10:58:47.537Z,28.19
2019-02-27T10:59:44.984Z,28.48
2019-02-27T11:00:46.313Z,28.39
2019-02-27T11:01:44.843Z,28.29
2019-02-27T11:02:45.177Z,28.39
2019-02-27T11:03:44.752Z,28.48
2019-02-27T11:04:44.705Z,28.58
2019-02-27T11:05:44.664Z,28.67
2019-02-27T11:06:45.223Z,28.67
2019-02-27T11:07:46.515Z,28.39
2019-02-27T11:08:44.523Z,28.29
2019-02-27T11:09:44.479Z,28.58
2019-02-27T11:10:44.433Z,28.58
2019-02-27T11:11:44.388Z,28.48
2019-02-27T11:12:44.343Z,28.67
2019-02-27T11:13:44.296Z,28.58
2019-02-27T11:14:44.253Z,28.48
2019-02-27T11:15:45.405Z,28.67
2019-02-27T11:16:44.158Z,28.67
2019-02-27T11:17:44.112Z,28.58
2019-02-27T11:18:44.067Z,28.66
2019-02-27T11:19:44.023Z,28.66
2019-02-27T11:20:44.027Z,28.48
2019-02-27T11:21:43.981Z,28.58
2019-02-27T11:22:43.886Z,28.48
2019-02-27T11:23:43.840Z,28.66
2019-02-27T11:24:43.794Z,28.66
2019-02-27T11:25:43.747Z,28.76
2019-02-27T11:26:43.703Z,28.67
2019-02-27T11:27:43.658Z,28.66
2019-02-27T11:28:47.548Z,28.76
2019-02-27T11:29:43.570Z,28.56
2019-02-27T11:30:43.521Z,28.67
2019-02-27T11:31:45.531Z,28.66
2019-02-27T11:32:43.428Z,28.47
2019-02-27T11:33:43.427Z,28.56
2019-02-27T11:34:45.579Z,28.56
2019-02-27T11:35:43.293Z,28.66
2019-02-27T11:36:43.247Z,28.66
2019-02-27T11:37:44.393Z,28.76
2019-02-27T11:38:43.157Z,28.66
2019-02-27T11:39:43.110Z,28.56
2019-02-27T11:40:43.064Z,28.66
2019-02-27T11:41:43.017Z,28.66
2019-02-27T11:42:42.973Z,28.76
2019-02-27T11:43:42.927Z,28.66
2019-02-27T11:44:42.996Z,28.76
2019-02-27T11:45:42.836Z,28.76
2019-02-27T11:46:42.789Z,28.76
2019-02-27T11:47:47.719Z,28.85
2019-02-27T11:48:42.699Z,28.76
2019-02-27T11:49:42.653Z,28.66
2019-02-27T11:50:42.607Z,28.66
2019-02-27T11:51:42.562Z,28.66
2019-02-27T11:52:48.887Z,28.56
2019-02-27T11:53:42.469Z,28.76
2019-02-27T11:54:43.169Z,28.66
2019-02-27T11:55:42.379Z,28.76
2019-02-27T11:56:42.333Z,28.66
2019-02-27T11:57:43.290Z,28.76
2019-02-27T11:58:42.241Z,28.85
2019-02-27T11:59:46.584Z,28.76
2019-02-27T12:00:42.150Z,28.76
2019-02-27T12:01:42.105Z,28.66
2019-02-27T12:02:42.058Z,28.56
2019-02-27T12:03:45.693Z,28.76
2019-02-27T12:04:41.966Z,28.66
2019-02-27T12:05:41.921Z,28.66
2019-02-27T12:06:42.237Z,28.66
2019-02-27T12:07:41.829Z,28.66
2019-02-27T12:08:41.784Z,28.66
2019-02-27T12:09:41.740Z,28.76
2019-02-27T12:10:41.695Z,28.37
2019-02-27T12:11:41.648Z,28.76
2019-02-27T12:12:41.601Z,28.76
2019-02-27T12:13:41.555Z,28.66
2019-02-27T12:14:41.512Z,28.95
2019-02-27T12:15:43.599Z,28.66
2019-02-27T12:16:41.420Z,28.95
2019-02-27T12:17:41.372Z,28.76
2019-02-27T12:18:41.327Z,28.66
2019-02-27T12:19:44.392Z,28.66
2019-02-27T12:20:41.234Z,28.37
2019-02-27T12:21:41.188Z,28.66
2019-02-27T12:22:41.144Z,28.74
2019-02-27T12:23:44.138Z,28.74
2019-02-27T12:24:41.052Z,28.76
2019-02-27T12:25:41.007Z,28.74
2019-02-27T12:26:41.061Z,28.37
2019-02-27T12:27:49.072Z,28.37
2019-02-27T12:28:40.868Z,28.64
2019-02-27T12:29:40.823Z,28.95
2019-02-27T12:30:40.777Z,28.74
2019-02-27T12:31:40.732Z,28.56
2019-02-27T12:32:40.689Z,28.64
2019-02-27T12:33:40.639Z,28.85
2019-02-27T12:34:40.594Z,29.03
2019-02-27T12:35:44.237Z,28.85
2019-02-27T12:36:40.509Z,28.76
2019-02-27T12:37:40.457Z,28.66
2019-02-27T12:38:42.312Z,28.55
2019-02-27T12:39:40.365Z,28.95
2019-02-27T12:40:40.318Z,28.66
2019-02-27T12:41:40.273Z,28.74
2019-02-27T12:42:42.605Z,28.74
2019-02-27T12:43:40.182Z,28.84
2019-02-27T12:44:40.136Z,29.03
2019-02-27T12:45:40.090Z,28.84
2019-02-27T12:46:40.045Z,28.56
2019-02-27T12:47:40.656Z,28.84
2019-02-27T12:48:39.955Z,28.74
2019-02-27T12:49:39.907Z,28.94
2019-02-27T12:50:39.864Z,28.64
2019-02-27T12:51:39.815Z,28.55